sensor_id;sensor_type;location;lat;lon;timestamp;P1;durP1;ratioP1;P2;durP2;ratioP2
14381;SDS011;7275;50.328;8.720;2023-03-19T00:00:48;3.30;;;2.30;;
14381;SDS011;7275;50.328;8.720;2023-03-19T00:03:16;3.43;;;2.50;;
14381;SDS011;7275;50.328;8.720;2023-03-19T00:05:50;3.10;;;2.40;;
14381;SDS011;7275;50.328;8.720;2023-03-19T00:08:19;2.10;;;1.90;;
14381;SDS011;7275;50.328;8.720;2023-03-19T00:10:47;5.40;;;2.03;;
14381;SDS011;7275;50.328;8.720;2023-03-19T00:13:15;2.77;;;2.20;;
14381;SDS011;7275;50.328;8.720;2023-03-19T00:15:43;3.73;;;2.40;;
14381;SDS011;7275;50.328;8.720;2023-03-19T00:18:10;2.80;;;2.30;;
14381;SDS011;7275;50.328;8.720;2023-03-19T00:20:38;3.80;;;2.70;;
14381;SDS011;7275;50.328;8.720;2023-03-19T00:23:07;3.00;;;2.50;;
14381;SDS011;7275;50.328;8.720;2023-03-19T00:25:34;2.83;;;2.40;;
14381;SDS011;7275;50.328;8.720;2023-03-19T00:28:02;3.10;;;2.57;;
14381;SDS011;7275;50.328;8.720;2023-03-19T00:30:30;3.93;;;2.83;;
14381;SDS011;7275;50.328;8.720;2023-03-19T00:32:57;3.47;;;2.57;;
14381;SDS011;7275;50.328;8.720;2023-03-19T00:35:25;3.83;;;2.60;;
14381;SDS011;7275;50.328;8.720;2023-03-19T00:37:52;3.47;;;2.50;;
14381;SDS011;7275;50.328;8.720;2023-03-19T00:40:21;5.37;;;2.70;;
14381;SDS011;7275;50.328;8.720;2023-03-19T00:42:49;5.17;;;2.13;;
14381;SDS011;7275;50.328;8.720;2023-03-19T00:45:17;3.07;;;2.37;;
14381;SDS011;7275;50.328;8.720;2023-03-19T00:47:45;4.47;;;2.63;;
14381;SDS011;7275;50.328;8.720;2023-03-19T00:50:12;4.20;;;2.50;;
14381;SDS011;7275;50.328;8.720;2023-03-19T00:52:40;4.40;;;2.63;;
14381;SDS011;7275;50.328;8.720;2023-03-19T00:55:08;4.13;;;2.90;;
14381;SDS011;7275;50.328;8.720;2023-03-19T00:57:37;3.83;;;2.80;;
14381;SDS011;7275;50.328;8.720;2023-03-19T01:00:05;2.83;;;2.53;;
14381;SDS011;7275;50.328;8.720;2023-03-19T01:02:33;2.97;;;2.50;;
14381;SDS011;7275;50.328;8.720;2023-03-19T01:05:01;5.60;;;2.80;;
14381;SDS011;7275;50.328;8.720;2023-03-19T01:07:29;4.27;;;2.53;;
14381;SDS011;7275;50.328;8.720;2023-03-19T01:09:56;3.13;;;2.10;;
14381;SDS011;7275;50.328;8.720;2023-03-19T01:12:24;3.63;;;2.20;;
14381;SDS011;7275;50.328;8.720;2023-03-19T01:14:53;2.30;;;2.00;;
14381;SDS011;7275;50.328;8.720;2023-03-19T01:17:20;3.13;;;2.20;;
14381;SDS011;7275;50.328;8.720;2023-03-19T01:19:48;2.60;;;2.33;;
14381;SDS011;7275;50.328;8.720;2023-03-19T01:22:16;2.73;;;2.30;;
14381;SDS011;7275;50.328;8.720;2023-03-19T01:24:44;2.43;;;2.13;;
14381;SDS011;7275;50.328;8.720;2023-03-19T01:27:12;3.00;;;2.00;;
14381;SDS011;7275;50.328;8.720;2023-03-19T01:29:40;2.80;;;2.50;;
14381;SDS011;7275;50.328;8.720;2023-03-19T01:32:08;5.70;;;2.47;;
14381;SDS011;7275;50.328;8.720;2023-03-19T01:34:36;3.40;;;2.40;;
14381;SDS011;7275;50.328;8.720;2023-03-19T01:37:04;2.50;;;2.30;;
14381;SDS011;7275;50.328;8.720;2023-03-19T01:39:31;3.43;;;2.73;;
14381;SDS011;7275;50.328;8.720;2023-03-19T01:42:00;4.03;;;2.83;;
14381;SDS011;7275;50.328;8.720;2023-03-19T01:44:29;4.27;;;3.17;;
14381;SDS011;7275;50.328;8.720;2023-03-19T01:47:00;2.90;;;2.20;;
14381;SDS011;7275;50.328;8.720;2023-03-19T01:49:30;2.73;;;2.10;;
14381;SDS011;7275;50.328;8.720;2023-03-19T01:51:58;2.63;;;1.80;;
14381;SDS011;7275;50.328;8.720;2023-03-19T01:54:28;2.50;;;2.30;;
14381;SDS011;7275;50.328;8.720;2023-03-19T01:56:59;3.00;;;2.27;;
14381;SDS011;7275;50.328;8.720;2023-03-19T01:59:32;3.80;;;3.20;;
14381;SDS011;7275;50.328;8.720;2023-03-19T02:02:03;3.80;;;3.03;;
14381;SDS011;7275;50.328;8.720;2023-03-19T02:04:37;5.60;;;3.20;;
14381;SDS011;7275;50.328;8.720;2023-03-19T02:07:08;4.80;;;3.40;;
14381;SDS011;7275;50.328;8.720;2023-03-19T02:09:37;5.97;;;3.20;;
14381;SDS011;7275;50.328;8.720;2023-03-19T02:12:06;5.73;;;3.20;;
14381;SDS011;7275;50.328;8.720;2023-03-19T02:14:35;3.77;;;3.17;;
14381;SDS011;7275;50.328;8.720;2023-03-19T02:17:02;4.60;;;3.10;;
14381;SDS011;7275;50.328;8.720;2023-03-19T02:19:31;4.67;;;3.20;;
14381;SDS011;7275;50.328;8.720;2023-03-19T02:22:05;3.60;;;3.20;;
14381;SDS011;7275;50.328;8.720;2023-03-19T02:24:37;3.67;;;3.23;;
14381;SDS011;7275;50.328;8.720;2023-03-19T02:27:09;4.20;;;3.80;;
14381;SDS011;7275;50.328;8.720;2023-03-19T02:29:37;5.43;;;3.90;;
14381;SDS011;7275;50.328;8.720;2023-03-19T02:32:04;7.90;;;4.47;;
14381;SDS011;7275;50.328;8.720;2023-03-19T02:34:33;5.20;;;4.47;;
14381;SDS011;7275;50.328;8.720;2023-03-19T02:37:04;5.33;;;4.50;;
14381;SDS011;7275;50.328;8.720;2023-03-19T02:39:39;5.43;;;4.30;;
14381;SDS011;7275;50.328;8.720;2023-03-19T02:42:13;5.23;;;4.70;;
14381;SDS011;7275;50.328;8.720;2023-03-19T02:44:43;5.10;;;4.57;;
14381;SDS011;7275;50.328;8.720;2023-03-19T02:47:11;7.97;;;4.20;;
14381;SDS011;7275;50.328;8.720;2023-03-19T02:49:38;6.00;;;4.27;;
14381;SDS011;7275;50.328;8.720;2023-03-19T02:52:06;6.77;;;4.77;;
14381;SDS011;7275;50.328;8.720;2023-03-19T02:54:34;5.57;;;4.70;;
14381;SDS011;7275;50.328;8.720;2023-03-19T02:57:02;6.17;;;4.60;;
14381;SDS011;7275;50.328;8.720;2023-03-19T02:59:31;4.70;;;4.20;;
14381;SDS011;7275;50.328;8.720;2023-03-19T03:01:59;7.20;;;4.77;;
14381;SDS011;7275;50.328;8.720;2023-03-19T03:04:27;4.63;;;4.17;;
14381;SDS011;7275;50.328;8.720;2023-03-19T03:06:54;5.70;;;4.37;;
14381;SDS011;7275;50.328;8.720;2023-03-19T03:09:22;5.73;;;4.47;;
14381;SDS011;7275;50.328;8.720;2023-03-19T03:11:49;5.40;;;4.27;;
14381;SDS011;7275;50.328;8.720;2023-03-19T03:14:17;6.87;;;4.03;;
14381;SDS011;7275;50.328;8.720;2023-03-19T03:16:46;6.93;;;4.00;;
14381;SDS011;7275;50.328;8.720;2023-03-19T03:19:13;4.87;;;3.97;;
14381;SDS011;7275;50.328;8.720;2023-03-19T03:21:42;4.60;;;4.00;;
14381;SDS011;7275;50.328;8.720;2023-03-19T03:24:09;5.20;;;4.57;;
14381;SDS011;7275;50.328;8.720;2023-03-19T03:26:37;5.73;;;4.40;;
14381;SDS011;7275;50.328;8.720;2023-03-19T03:29:05;5.27;;;4.50;;
14381;SDS011;7275;50.328;8.720;2023-03-19T03:31:33;5.00;;;4.20;;
14381;SDS011;7275;50.328;8.720;2023-03-19T03:34:02;5.03;;;4.17;;
14381;SDS011;7275;50.328;8.720;2023-03-19T03:36:29;5.17;;;4.63;;
14381;SDS011;7275;50.328;8.720;2023-03-19T03:38:57;6.40;;;4.67;;
14381;SDS011;7275;50.328;8.720;2023-03-19T03:41:24;5.33;;;4.80;;
14381;SDS011;7275;50.328;8.720;2023-03-19T03:43:52;5.40;;;4.90;;
14381;SDS011;7275;50.328;8.720;2023-03-19T03:46:20;7.27;;;5.00;;
14381;SDS011;7275;50.328;8.720;2023-03-19T03:48:48;6.37;;;5.13;;
14381;SDS011;7275;50.328;8.720;2023-03-19T03:51:17;5.50;;;4.80;;
14381;SDS011;7275;50.328;8.720;2023-03-19T03:53:47;5.53;;;4.90;;
14381;SDS011;7275;50.328;8.720;2023-03-19T03:56:14;5.60;;;4.80;;
14381;SDS011;7275;50.328;8.720;2023-03-19T03:58:42;4.73;;;4.03;;
14381;SDS011;7275;50.328;8.720;2023-03-19T04:01:10;4.83;;;3.90;;
14381;SDS011;7275;50.328;8.720;2023-03-19T04:03:41;5.63;;;4.37;;
14381;SDS011;7275;50.328;8.720;2023-03-19T04:06:09;4.60;;;4.20;;
14381;SDS011;7275;50.328;8.720;2023-03-19T04:08:43;4.43;;;3.93;;
14381;SDS011;7275;50.328;8.720;2023-03-19T04:11:11;5.47;;;4.27;;
14381;SDS011;7275;50.328;8.720;2023-03-19T04:13:38;5.57;;;4.73;;
14381;SDS011;7275;50.328;8.720;2023-03-19T04:16:06;5.30;;;4.70;;
14381;SDS011;7275;50.328;8.720;2023-03-19T04:18:36;5.10;;;4.40;;
14381;SDS011;7275;50.328;8.720;2023-03-19T04:21:04;4.07;;;3.67;;
14381;SDS011;7275;50.328;8.720;2023-03-19T04:23:32;4.67;;;4.20;;
14381;SDS011;7275;50.328;8.720;2023-03-19T04:26:02;5.13;;;4.63;;
14381;SDS011;7275;50.328;8.720;2023-03-19T04:28:31;5.53;;;4.73;;
14381;SDS011;7275;50.328;8.720;2023-03-19T04:30:59;6.50;;;5.20;;
14381;SDS011;7275;50.328;8.720;2023-03-19T04:33:27;5.57;;;4.97;;
14381;SDS011;7275;50.328;8.720;2023-03-19T04:35:56;7.23;;;5.40;;
14381;SDS011;7275;50.328;8.720;2023-03-19T04:38:24;5.93;;;5.10;;
14381;SDS011;7275;50.328;8.720;2023-03-19T04:40:52;6.93;;;5.30;;
14381;SDS011;7275;50.328;8.720;2023-03-19T04:43:22;5.47;;;4.50;;
14381;SDS011;7275;50.328;8.720;2023-03-19T04:45:50;5.83;;;5.00;;
14381;SDS011;7275;50.328;8.720;2023-03-19T04:48:18;6.17;;;4.80;;
14381;SDS011;7275;50.328;8.720;2023-03-19T04:50:45;6.13;;;4.70;;
14381;SDS011;7275;50.328;8.720;2023-03-19T04:53:17;6.60;;;5.00;;
14381;SDS011;7275;50.328;8.720;2023-03-19T04:55:45;5.80;;;4.40;;
14381;SDS011;7275;50.328;8.720;2023-03-19T04:58:13;5.77;;;4.17;;
14381;SDS011;7275;50.328;8.720;2023-03-19T05:00:42;4.30;;;3.73;;
14381;SDS011;7275;50.328;8.720;2023-03-19T05:03:12;5.40;;;3.63;;
14381;SDS011;7275;50.328;8.720;2023-03-19T05:05:39;5.50;;;3.60;;
14381;SDS011;7275;50.328;8.720;2023-03-19T05:08:07;3.90;;;3.50;;
14381;SDS011;7275;50.328;8.720;2023-03-19T05:10:36;5.43;;;3.67;;
14381;SDS011;7275;50.328;8.720;2023-03-19T05:13:04;5.77;;;3.67;;
14381;SDS011;7275;50.328;8.720;2023-03-19T05:15:32;5.00;;;4.23;;
14381;SDS011;7275;50.328;8.720;2023-03-19T05:18:01;5.37;;;3.90;;
14381;SDS011;7275;50.328;8.720;2023-03-19T05:20:28;5.03;;;4.23;;
14381;SDS011;7275;50.328;8.720;2023-03-19T05:22:56;5.37;;;3.73;;
14381;SDS011;7275;50.328;8.720;2023-03-19T05:25:23;3.87;;;3.20;;
14381;SDS011;7275;50.328;8.720;2023-03-19T05:27:52;3.77;;;2.93;;
14381;SDS011;7275;50.328;8.720;2023-03-19T05:30:19;4.07;;;2.80;;
14381;SDS011;7275;50.328;8.720;2023-03-19T05:32:48;4.67;;;3.47;;
14381;SDS011;7275;50.328;8.720;2023-03-19T05:35:17;3.80;;;3.40;;
14381;SDS011;7275;50.328;8.720;2023-03-19T05:37:45;5.43;;;4.00;;
14381;SDS011;7275;50.328;8.720;2023-03-19T05:40:12;5.57;;;4.00;;
14381;SDS011;7275;50.328;8.720;2023-03-19T05:42:41;4.70;;;4.00;;
14381;SDS011;7275;50.328;8.720;2023-03-19T05:45:09;5.57;;;4.13;;
14381;SDS011;7275;50.328;8.720;2023-03-19T05:47:37;6.40;;;4.10;;
14381;SDS011;7275;50.328;8.720;2023-03-19T05:50:05;6.77;;;4.13;;
14381;SDS011;7275;50.328;8.720;2023-03-19T05:52:38;5.20;;;4.17;;
14381;SDS011;7275;50.328;8.720;2023-03-19T05:55:05;6.80;;;4.30;;
14381;SDS011;7275;50.328;8.720;2023-03-19T05:57:34;5.60;;;4.10;;
14381;SDS011;7275;50.328;8.720;2023-03-19T06:00:03;5.13;;;4.17;;
14381;SDS011;7275;50.328;8.720;2023-03-19T06:02:32;6.37;;;4.30;;
14381;SDS011;7275;50.328;8.720;2023-03-19T06:05:00;6.27;;;4.40;;
14381;SDS011;7275;50.328;8.720;2023-03-19T06:07:28;6.63;;;4.03;;
14381;SDS011;7275;50.328;8.720;2023-03-19T06:09:56;5.00;;;4.10;;
14381;SDS011;7275;50.328;8.720;2023-03-19T06:12:24;5.53;;;4.27;;
14381;SDS011;7275;50.328;8.720;2023-03-19T06:14:52;5.67;;;3.90;;
14381;SDS011;7275;50.328;8.720;2023-03-19T06:17:20;8.67;;;4.40;;
14381;SDS011;7275;50.328;8.720;2023-03-19T06:19:47;6.67;;;4.23;;
14381;SDS011;7275;50.328;8.720;2023-03-19T06:22:15;4.67;;;3.70;;
14381;SDS011;7275;50.328;8.720;2023-03-19T06:24:42;5.23;;;4.13;;
14381;SDS011;7275;50.328;8.720;2023-03-19T06:27:11;4.87;;;3.70;;
14381;SDS011;7275;50.328;8.720;2023-03-19T06:29:39;4.53;;;3.83;;
14381;SDS011;7275;50.328;8.720;2023-03-19T06:32:06;4.87;;;3.97;;
14381;SDS011;7275;50.328;8.720;2023-03-19T06:34:35;4.93;;;4.20;;
14381;SDS011;7275;50.328;8.720;2023-03-19T06:37:02;5.60;;;3.90;;
14381;SDS011;7275;50.328;8.720;2023-03-19T06:39:30;4.20;;;3.73;;
14381;SDS011;7275;50.328;8.720;2023-03-19T06:41:58;4.63;;;3.80;;
14381;SDS011;7275;50.328;8.720;2023-03-19T06:44:27;4.50;;;3.93;;
14381;SDS011;7275;50.328;8.720;2023-03-19T06:46:55;6.73;;;3.97;;
14381;SDS011;7275;50.328;8.720;2023-03-19T06:49:22;5.37;;;3.90;;
14381;SDS011;7275;50.328;8.720;2023-03-19T06:51:50;4.57;;;3.47;;
14381;SDS011;7275;50.328;8.720;2023-03-19T06:54:18;6.00;;;3.87;;
14381;SDS011;7275;50.328;8.720;2023-03-19T06:56:45;4.03;;;3.60;;
14381;SDS011;7275;50.328;8.720;2023-03-19T06:59:14;5.00;;;3.30;;
14381;SDS011;7275;50.328;8.720;2023-03-19T07:01:43;4.93;;;3.20;;
14381;SDS011;7275;50.328;8.720;2023-03-19T07:04:11;3.63;;;3.13;;
14381;SDS011;7275;50.328;8.720;2023-03-19T07:06:39;5.23;;;3.60;;
14381;SDS011;7275;50.328;8.720;2023-03-19T07:09:07;4.90;;;3.80;;
14381;SDS011;7275;50.328;8.720;2023-03-19T07:11:34;5.73;;;4.27;;
14381;SDS011;7275;50.328;8.720;2023-03-19T07:14:02;5.23;;;4.23;;
14381;SDS011;7275;50.328;8.720;2023-03-19T07:16:29;5.60;;;4.70;;
14381;SDS011;7275;50.328;8.720;2023-03-19T07:18:58;6.73;;;4.67;;
14381;SDS011;7275;50.328;8.720;2023-03-19T07:21:26;5.33;;;4.30;;
14381;SDS011;7275;50.328;8.720;2023-03-19T07:23:54;4.67;;;4.23;;
14381;SDS011;7275;50.328;8.720;2023-03-19T07:26:21;5.40;;;4.20;;
14381;SDS011;7275;50.328;8.720;2023-03-19T07:28:49;5.10;;;4.03;;
14381;SDS011;7275;50.328;8.720;2023-03-19T07:31:16;4.87;;;4.20;;
14381;SDS011;7275;50.328;8.720;2023-03-19T07:33:44;5.20;;;4.30;;
14381;SDS011;7275;50.328;8.720;2023-03-19T07:36:12;4.93;;;4.00;;
14381;SDS011;7275;50.328;8.720;2023-03-19T07:38:41;5.90;;;4.37;;
14381;SDS011;7275;50.328;8.720;2023-03-19T07:41:09;4.97;;;4.20;;
14381;SDS011;7275;50.328;8.720;2023-03-19T07:43:36;5.90;;;4.83;;
14381;SDS011;7275;50.328;8.720;2023-03-19T07:46:04;5.70;;;4.50;;
14381;SDS011;7275;50.328;8.720;2023-03-19T07:48:32;5.00;;;4.43;;
14381;SDS011;7275;50.328;8.720;2023-03-19T07:50:59;4.50;;;4.00;;
14381;SDS011;7275;50.328;8.720;2023-03-19T07:53:28;4.93;;;4.43;;
14381;SDS011;7275;50.328;8.720;2023-03-19T07:55:56;5.43;;;4.30;;
14381;SDS011;7275;50.328;8.720;2023-03-19T07:58:23;6.10;;;4.03;;
14381;SDS011;7275;50.328;8.720;2023-03-19T08:00:51;5.30;;;4.23;;
14381;SDS011;7275;50.328;8.720;2023-03-19T08:03:19;4.93;;;4.20;;
14381;SDS011;7275;50.328;8.720;2023-03-19T08:05:47;4.80;;;4.30;;
14381;SDS011;7275;50.328;8.720;2023-03-19T08:08:15;5.00;;;4.10;;
14381;SDS011;7275;50.328;8.720;2023-03-19T08:10:44;5.30;;;4.23;;
14381;SDS011;7275;50.328;8.720;2023-03-19T08:13:13;5.00;;;4.27;;
14381;SDS011;7275;50.328;8.720;2023-03-19T08:15:40;5.40;;;4.87;;
14381;SDS011;7275;50.328;8.720;2023-03-19T08:18:08;6.30;;;4.90;;
14381;SDS011;7275;50.328;8.720;2023-03-19T08:20:35;6.43;;;4.90;;
14381;SDS011;7275;50.328;8.720;2023-03-19T08:23:03;5.90;;;4.97;;
14381;SDS011;7275;50.328;8.720;2023-03-19T08:25:31;6.87;;;5.20;;
14381;SDS011;7275;50.328;8.720;2023-03-19T08:28:00;6.23;;;5.33;;
14381;SDS011;7275;50.328;8.720;2023-03-19T08:30:27;8.50;;;5.80;;
14381;SDS011;7275;50.328;8.720;2023-03-19T08:32:55;6.20;;;5.60;;
14381;SDS011;7275;50.328;8.720;2023-03-19T08:35:23;6.47;;;5.40;;
14381;SDS011;7275;50.328;8.720;2023-03-19T08:37:52;7.73;;;5.33;;
14381;SDS011;7275;50.328;8.720;2023-03-19T08:40:19;6.83;;;5.73;;
14381;SDS011;7275;50.328;8.720;2023-03-19T08:42:47;7.20;;;5.60;;
14381;SDS011;7275;50.328;8.720;2023-03-19T08:45:16;8.80;;;5.80;;
14381;SDS011;7275;50.328;8.720;2023-03-19T08:47:44;6.87;;;5.40;;
14381;SDS011;7275;50.328;8.720;2023-03-19T08:50:12;6.53;;;5.43;;
14381;SDS011;7275;50.328;8.720;2023-03-19T08:52:40;7.47;;;5.43;;
14381;SDS011;7275;50.328;8.720;2023-03-19T08:55:08;6.60;;;5.60;;
14381;SDS011;7275;50.328;8.720;2023-03-19T08:57:36;7.00;;;5.60;;
14381;SDS011;7275;50.328;8.720;2023-03-19T09:00:04;6.47;;;5.50;;
14381;SDS011;7275;50.328;8.720;2023-03-19T09:02:34;6.10;;;5.50;;
14381;SDS011;7275;50.328;8.720;2023-03-19T09:05:01;6.07;;;5.03;;
14381;SDS011;7275;50.328;8.720;2023-03-19T09:07:29;5.97;;;5.40;;
14381;SDS011;7275;50.328;8.720;2023-03-19T09:09:57;8.77;;;5.60;;
14381;SDS011;7275;50.328;8.720;2023-03-19T09:12:24;5.90;;;5.23;;
14381;SDS011;7275;50.328;8.720;2023-03-19T09:14:51;5.93;;;5.10;;
14381;SDS011;7275;50.328;8.720;2023-03-19T09:17:19;6.87;;;5.10;;
14381;SDS011;7275;50.328;8.720;2023-03-19T09:19:48;6.43;;;4.77;;
14381;SDS011;7275;50.328;8.720;2023-03-19T09:22:15;6.43;;;5.20;;
14381;SDS011;7275;50.328;8.720;2023-03-19T09:24:43;5.23;;;4.73;;
14381;SDS011;7275;50.328;8.720;2023-03-19T09:27:10;5.03;;;4.27;;
14381;SDS011;7275;50.328;8.720;2023-03-19T09:29:38;5.13;;;4.40;;
14381;SDS011;7275;50.328;8.720;2023-03-19T09:32:06;4.20;;;3.57;;
14381;SDS011;7275;50.328;8.720;2023-03-19T09:34:34;4.50;;;3.70;;
14381;SDS011;7275;50.328;8.720;2023-03-19T09:37:03;4.60;;;3.90;;
14381;SDS011;7275;50.328;8.720;2023-03-19T09:39:30;4.43;;;3.43;;
14381;SDS011;7275;50.328;8.720;2023-03-19T09:42:02;3.80;;;3.27;;
14381;SDS011;7275;50.328;8.720;2023-03-19T09:44:39;3.80;;;3.03;;
14381;SDS011;7275;50.328;8.720;2023-03-19T09:47:19;3.83;;;3.10;;
14381;SDS011;7275;50.328;8.720;2023-03-19T09:49:52;3.17;;;2.87;;
14381;SDS011;7275;50.328;8.720;2023-03-19T09:52:31;3.85;;;3.10;;
14381;SDS011;7275;50.328;8.720;2023-03-19T09:55:05;3.08;;;2.72;;
14381;SDS011;7275;50.328;8.720;2023-03-19T09:57:40;3.13;;;2.70;;
14381;SDS011;7275;50.328;8.720;2023-03-19T10:00:12;3.65;;;2.60;;
14381;SDS011;7275;50.328;8.720;2023-03-19T10:02:48;3.53;;;2.40;;
14381;SDS011;7275;50.328;8.720;2023-03-19T10:05:22;2.65;;;2.10;;
14381;SDS011;7275;50.328;8.720;2023-03-19T10:08:03;2.10;;;1.90;;
14381;SDS011;7275;50.328;8.720;2023-03-19T10:10:48;3.03;;;2.10;;
14381;SDS011;7275;50.328;8.720;2023-03-19T10:13:24;3.08;;;2.30;;
14381;SDS011;7275;50.328;8.720;2023-03-19T10:16:03;3.40;;;2.20;;
14381;SDS011;7275;50.328;8.720;2023-03-19T10:18:32;2.58;;;2.38;;
14381;SDS011;7275;50.328;8.720;2023-03-19T10:21:04;4.65;;;2.20;;
14381;SDS011;7275;50.328;8.720;2023-03-19T10:23:40;3.22;;;2.10;;
14381;SDS011;7275;50.328;8.720;2023-03-19T10:26:12;2.25;;;2.00;;
14381;SDS011;7275;50.328;8.720;2023-03-19T10:28:41;3.22;;;2.20;;
14381;SDS011;7275;50.328;8.720;2023-03-19T10:31:12;3.47;;;2.08;;
14381;SDS011;7275;50.328;8.720;2023-03-19T10:33:52;3.13;;;2.30;;
14381;SDS011;7275;50.328;8.720;2023-03-19T10:36:31;3.23;;;2.37;;
14381;SDS011;7275;50.328;8.720;2023-03-19T10:39:03;3.07;;;2.17;;
14381;SDS011;7275;50.328;8.720;2023-03-19T10:41:36;3.07;;;2.03;;
14381;SDS011;7275;50.328;8.720;2023-03-19T10:44:16;3.90;;;2.20;;
14381;SDS011;7275;50.328;8.720;2023-03-19T10:46:55;3.70;;;1.90;;
14381;SDS011;7275;50.328;8.720;2023-03-19T10:49:24;2.13;;;1.93;;
14381;SDS011;7275;50.328;8.720;2023-03-19T10:51:52;2.87;;;2.20;;
14381;SDS011;7275;50.328;8.720;2023-03-19T10:54:25;1.93;;;1.70;;
14381;SDS011;7275;50.328;8.720;2023-03-19T10:56:54;2.03;;;1.83;;
14381;SDS011;7275;50.328;8.720;2023-03-19T10:59:24;3.10;;;1.83;;
14381;SDS011;7275;50.328;8.720;2023-03-19T11:01:57;2.40;;;1.97;;
14381;SDS011;7275;50.328;8.720;2023-03-19T11:04:27;2.97;;;1.90;;
14381;SDS011;7275;50.328;8.720;2023-03-19T11:07:01;2.83;;;1.90;;
14381;SDS011;7275;50.328;8.720;2023-03-19T11:09:37;2.13;;;1.50;;
14381;SDS011;7275;50.328;8.720;2023-03-19T11:12:07;2.00;;;1.40;;
14381;SDS011;7275;50.328;8.720;2023-03-19T11:14:43;1.90;;;1.57;;
14381;SDS011;7275;50.328;8.720;2023-03-19T11:17:19;1.43;;;1.30;;
14381;SDS011;7275;50.328;8.720;2023-03-19T11:19:50;1.40;;;1.30;;
14381;SDS011;7275;50.328;8.720;2023-03-19T11:22:20;2.50;;;1.50;;
14381;SDS011;7275;50.328;8.720;2023-03-19T11:24:51;1.47;;;1.20;;
14381;SDS011;7275;50.328;8.720;2023-03-19T11:27:28;2.03;;;1.50;;
14381;SDS011;7275;50.328;8.720;2023-03-19T11:30:00;1.97;;;1.40;;
14381;SDS011;7275;50.328;8.720;2023-03-19T11:32:35;1.30;;;1.07;;
14381;SDS011;7275;50.328;8.720;2023-03-19T11:35:13;1.70;;;1.30;;
14381;SDS011;7275;50.328;8.720;2023-03-19T11:37:49;1.00;;;0.90;;
14381;SDS011;7275;50.328;8.720;2023-03-19T11:40:23;1.10;;;1.00;;
14381;SDS011;7275;50.328;8.720;2023-03-19T11:42:59;1.60;;;0.97;;
14381;SDS011;7275;50.328;8.720;2023-03-19T11:45:53;1.50;;;1.00;;
14381;SDS011;7275;50.328;8.720;2023-03-19T11:48:31;1.50;;;1.00;;
14381;SDS011;7275;50.328;8.720;2023-03-19T11:51:10;1.43;;;1.10;;
14381;SDS011;7275;50.328;8.720;2023-03-19T11:53:48;0.97;;;0.80;;
14381;SDS011;7275;50.328;8.720;2023-03-19T11:56:30;2.37;;;1.10;;
14381;SDS011;7275;50.328;8.720;2023-03-19T11:59:08;1.70;;;1.20;;
14381;SDS011;7275;50.328;8.720;2023-03-19T12:04:57;1.87;;;1.10;;
14381;SDS011;7275;50.328;8.720;2023-03-19T12:07:34;1.80;;;1.03;;
14381;SDS011;7275;50.328;8.720;2023-03-19T12:10:15;1.30;;;1.10;;
14381;SDS011;7275;50.328;8.720;2023-03-19T12:12:55;1.50;;;1.03;;
14381;SDS011;7275;50.328;8.720;2023-03-19T12:15:33;2.20;;;1.40;;
14381;SDS011;7275;50.328;8.720;2023-03-19T12:18:09;1.77;;;1.30;;
14381;SDS011;7275;50.328;8.720;2023-03-19T12:20:50;2.57;;;1.10;;
14381;SDS011;7275;50.328;8.720;2023-03-19T12:23:26;1.77;;;1.20;;
14381;SDS011;7275;50.328;8.720;2023-03-19T12:26:04;1.77;;;1.23;;
14381;SDS011;7275;50.328;8.720;2023-03-19T12:28:36;2.00;;;1.30;;
14381;SDS011;7275;50.328;8.720;2023-03-19T12:31:20;1.50;;;1.40;;
14381;SDS011;7275;50.328;8.720;2023-03-19T12:33:58;1.80;;;1.70;;
14381;SDS011;7275;50.328;8.720;2023-03-19T12:36:36;1.67;;;1.50;;
14381;SDS011;7275;50.328;8.720;2023-03-19T12:39:09;1.90;;;1.70;;
14381;SDS011;7275;50.328;8.720;2023-03-19T12:41:42;1.80;;;1.70;;
14381;SDS011;7275;50.328;8.720;2023-03-19T12:44:14;3.50;;;1.88;;
14381;SDS011;7275;50.328;8.720;2023-03-19T12:46:48;1.75;;;1.63;;
14381;SDS011;7275;50.328;8.720;2023-03-19T12:49:25;2.67;;;1.70;;
14381;SDS011;7275;50.328;8.720;2023-03-19T12:51:58;3.53;;;2.00;;
14381;SDS011;7275;50.328;8.720;2023-03-19T12:54:30;2.00;;;1.83;;
14381;SDS011;7275;50.328;8.720;2023-03-19T12:57:03;2.30;;;1.60;;
14381;SDS011;7275;50.328;8.720;2023-03-19T12:59:39;2.70;;;1.83;;
14381;SDS011;7275;50.328;8.720;2023-03-19T13:02:15;1.70;;;1.60;;
14381;SDS011;7275;50.328;8.720;2023-03-19T13:04:48;2.50;;;1.50;;
14381;SDS011;7275;50.328;8.720;2023-03-19T13:07:21;3.22;;;1.50;;
14381;SDS011;7275;50.328;8.720;2023-03-19T13:09:56;2.50;;;1.30;;
14381;SDS011;7275;50.328;8.720;2023-03-19T13:12:27;1.80;;;1.27;;
14381;SDS011;7275;50.328;8.720;2023-03-19T13:14:59;1.87;;;1.20;;
14381;SDS011;7275;50.328;8.720;2023-03-19T13:17:34;3.17;;;1.20;;
14381;SDS011;7275;50.328;8.720;2023-03-19T13:20:13;2.40;;;1.17;;
14381;SDS011;7275;50.328;8.720;2023-03-19T13:22:48;1.13;;;0.97;;
14381;SDS011;7275;50.328;8.720;2023-03-19T13:25:21;1.93;;;1.00;;
14381;SDS011;7275;50.328;8.720;2023-03-19T13:27:53;0.80;;;0.80;;
14381;SDS011;7275;50.328;8.720;2023-03-19T13:30:23;1.17;;;1.07;;
14381;SDS011;7275;50.328;8.720;2023-03-19T13:32:52;1.00;;;0.90;;
14381;SDS011;7275;50.328;8.720;2023-03-19T13:35:35;1.07;;;0.80;;
14381;SDS011;7275;50.328;8.720;2023-03-19T13:38:09;0.93;;;0.90;;
14381;SDS011;7275;50.328;8.720;2023-03-19T13:40:44;0.80;;;0.80;;
14381;SDS011;7275;50.328;8.720;2023-03-19T13:46:36;0.97;;;0.87;;
14381;SDS011;7275;50.328;8.720;2023-03-19T13:49:26;0.80;;;0.80;;
14381;SDS011;7275;50.328;8.720;2023-03-19T13:51:57;0.87;;;0.83;;
14381;SDS011;7275;50.328;8.720;2023-03-19T13:54:31;1.10;;;1.00;;
14381;SDS011;7275;50.328;8.720;2023-03-19T13:57:18;1.00;;;0.87;;
14381;SDS011;7275;50.328;8.720;2023-03-19T13:59:48;0.90;;;0.90;;
14381;SDS011;7275;50.328;8.720;2023-03-19T14:05:16;1.10;;;0.90;;
14381;SDS011;7275;50.328;8.720;2023-03-19T14:07:50;1.00;;;0.90;;
14381;SDS011;7275;50.328;8.720;2023-03-19T14:10:21;0.60;;;0.60;;
14381;SDS011;7275;50.328;8.720;2023-03-19T14:12:59;1.03;;;0.73;;
14381;SDS011;7275;50.328;8.720;2023-03-19T14:15:29;0.50;;;0.50;;
14381;SDS011;7275;50.328;8.720;2023-03-19T14:17:59;0.33;;;0.33;;
14381;SDS011;7275;50.328;8.720;2023-03-19T14:20:28;0.47;;;0.40;;
14381;SDS011;7275;50.328;8.720;2023-03-19T14:23:10;0.43;;;0.43;;
14381;SDS011;7275;50.328;8.720;2023-03-19T14:25:55;0.50;;;0.30;;
14381;SDS011;7275;50.328;8.720;2023-03-19T14:28:29;0.50;;;0.50;;
14381;SDS011;7275;50.328;8.720;2023-03-19T14:31:02;0.73;;;0.60;;
14381;SDS011;7275;50.328;8.720;2023-03-19T14:33:34;0.83;;;0.50;;
14381;SDS011;7275;50.328;8.720;2023-03-19T14:36:10;0.40;;;0.40;;
14381;SDS011;7275;50.328;8.720;2023-03-19T14:38:42;0.40;;;0.30;;
14381;SDS011;7275;50.328;8.720;2023-03-19T14:41:16;0.50;;;0.50;;
14381;SDS011;7275;50.328;8.720;2023-03-19T14:43:53;0.40;;;0.40;;
14381;SDS011;7275;50.328;8.720;2023-03-19T14:46:40;0.30;;;0.30;;
14381;SDS011;7275;50.328;8.720;2023-03-19T14:49:30;0.20;;;0.20;;
14381;SDS011;7275;50.328;8.720;2023-03-19T14:52:13;0.38;;;0.38;;
14381;SDS011;7275;50.328;8.720;2023-03-19T14:54:43;0.55;;;0.30;;
14381;SDS011;7275;50.328;8.720;2023-03-19T14:57:16;0.30;;;0.30;;
14381;SDS011;7275;50.328;8.720;2023-03-19T14:59:46;0.20;;;0.20;;
14381;SDS011;7275;50.328;8.720;2023-03-19T15:02:19;0.20;;;0.20;;
14381;SDS011;7275;50.328;8.720;2023-03-19T15:04:55;0.20;;;0.20;;
14381;SDS011;7275;50.328;8.720;2023-03-19T15:07:28;0.20;;;0.13;;
14381;SDS011;7275;50.328;8.720;2023-03-19T15:09:58;0.10;;;0.10;;
14381;SDS011;7275;50.328;8.720;2023-03-19T15:12:40;0.20;;;0.20;;
14381;SDS011;7275;50.328;8.720;2023-03-19T15:15:32;0.50;;;0.50;;
14381;SDS011;7275;50.328;8.720;2023-03-19T15:18:06;0.50;;;0.40;;
14381;SDS011;7275;50.328;8.720;2023-03-19T15:20:38;0.60;;;0.50;;
14381;SDS011;7275;50.328;8.720;2023-03-19T15:23:10;0.70;;;0.70;;
14381;SDS011;7275;50.328;8.720;2023-03-19T15:25:52;0.50;;;0.40;;
14381;SDS011;7275;50.328;8.720;2023-03-19T15:28:23;1.37;;;0.50;;
14381;SDS011;7275;50.328;8.720;2023-03-19T15:30:54;1.03;;;0.60;;